Time;durP1;ratioP1;P1;durP2;ratioP2;P2;SDS_P1;SDS_P2;PMS_P1;PMS_P2;Temp;Humidity;BMP_temperature;BMP_pressure;BME280_temperature;BME280_humidity;BME280_pressure;Samples;Min_cycle;Max_cycle;Signal;HPM_P1;HPM_P2
2023/04/23 00:01:18;;;;;;;84.25;50.58;;;;;;;7.81;100.00;100797.28;5066458;28;20408;-73
2023/04/23 00:03:44;;;;;;;89.82;51.95;;;;;;;7.72;100.00;100794.75;5081147;28;20028;-72
2023/04/23 00:06:10;;;;;;;92.32;52.85;;;;;;;7.73;100.00;100791.00;5060942;28;20039;-73
2023/04/23 00:08:39;;;;;;;94.25;52.38;;;;;;;7.74;100.00;100787.25;5082679;28;20034;-73
2023/04/23 00:11:06;;;;;;;83.25;50.42;;;;;;;7.62;100.00;100783.22;5065516;28;20120;-73
2023/04/23 00:13:31;;;;;;;92.38;50.58;;;;;;;7.64;100.00;100778.47;5065103;28;20020;-72
2023/04/23 00:15:57;;;;;;;85.63;50.22;;;;;;;7.58;100.00;100777.28;5081799;28;20062;-73
2023/04/23 00:18:23;;;;;;;96.50;55.60;;;;;;;7.59;100.00;100773.53;5082084;28;20397;-72
2023/04/23 00:20:48;;;;;;;97.75;52.80;;;;;;;7.62;100.00;100781.38;5084823;28;20111;-74
2023/04/23 00:23:13;;;;;;;88.30;50.08;;;;;;;7.85;100.00;100776.75;5082484;28;20033;-74
2023/04/23 00:25:39;;;;;;;92.60;50.95;;;;;;;7.92;100.00;100768.72;5080657;28;20036;-73
2023/04/23 00:28:04;;;;;;;93.00;51.10;;;;;;;7.85;100.00;100768.59;5074161;28;20082;-75
2023/04/23 00:30:30;;;;;;;93.13;52.20;;;;;;;7.95;100.00;100760.19;5058597;28;20023;-72
2023/04/23 00:32:55;;;;;;;85.50;51.00;;;;;;;7.93;100.00;100767.69;5071681;28;20552;-73
2023/04/23 00:35:20;;;;;;;88.97;52.38;;;;;;;7.96;100.00;100759.97;5078472;28;20032;-72
2023/04/23 00:37:46;;;;;;;87.15;48.22;;;;;;;7.97;100.00;100767.16;5063913;28;20061;-73
2023/04/23 00:40:12;;;;;;;91.38;52.08;;;;;;;8.09;100.00;100759.38;5077781;28;20397;-72
2023/04/23 00:42:38;;;;;;;88.75;52.00;;;;;;;8.08;100.00;100747.63;5079294;28;20028;-73
2023/04/23 00:45:07;;;;;;;89.53;52.22;;;;;;;8.05;100.00;100741.66;5078976;28;20030;-73
2023/04/23 00:47:33;;;;;;;89.90;51.55;;;;;;;8.00;100.00;100744.13;5082436;28;20057;-72
2023/04/23 00:49:59;;;;;;;89.53;51.55;;;;;;;8.10;100.00;100740.09;5080837;28;20466;-73
2023/04/23 00:52:24;;;;;;;88.45;51.50;;;;;;;8.13;100.00;100739.75;5080514;28;20038;-72
2023/04/23 00:54:50;;;;;;;85.18;50.85;;;;;;;8.11;100.00;100735.50;5078403;28;20032;-73
2023/04/23 00:57:16;;;;;;;85.35;49.60;;;;;;;8.13;100.00;100736.16;5059320;28;20550;-73
2023/04/23 00:59:42;;;;;;;90.03;49.93;;;;;;;8.13;100.00;100739.75;5054783;28;20078;-73
2023/04/23 01:02:07;;;;;;;75.23;47.03;;;;;;;8.17;100.00;100742.94;5075871;28;20028;-73
2023/04/23 01:04:35;;;;;;;76.82;47.55;;;;;;;8.28;100.00;100739.81;5070203;28;20268;-72
2023/04/23 01:07:02;;;;;;;82.18;46.10;;;;;;;8.34;100.00;100739.06;5079842;28;20028;-72
2023/04/23 01:09:28;;;;;;;71.85;45.10;;;;;;;8.37;100.00;100741.38;5066299;28;20032;-72
2023/04/23 01:11:54;;;;;;;75.37;44.27;;;;;;;8.39;100.00;100734.72;5062422;28;20035;-72
2023/04/23 01:14:19;;;;;;;73.23;43.70;;;;;;;8.40;100.00;100730.13;5079046;28;20385;-72
2023/04/23 01:16:45;;;;;;;70.97;44.65;;;;;;;8.43;100.00;100733.31;5059796;28;20028;-73
2023/04/23 01:19:11;;;;;;;67.18;42.15;;;;;;;8.47;100.00;100725.59;5076975;28;20072;-72
2023/04/23 01:21:40;;;;;;;65.70;40.95;;;;;;;8.47;100.00;100726.47;5072833;28;20029;-72
2023/04/23 01:24:07;;;;;;;66.88;41.70;;;;;;;8.46;100.00;100723.91;5064853;28;20370;-72
2023/04/23 01:26:33;;;;;;;68.53;42.08;;;;;;;8.45;100.00;100720.34;5077558;28;20039;-72
2023/04/23 01:28:59;;;;;;;65.82;41.60;;;;;;;8.50;100.00;100714.31;5076571;28;20123;-72
2023/04/23 01:31:26;;;;;;;60.13;39.80;;;;;;;8.57;100.00;100717.97;5077712;28;20465;-72
2023/04/23 01:33:56;;;;;;;59.33;39.08;;;;;;;8.54;100.00;100715.66;5060355;28;20040;-72
2023/04/23 01:36:25;;;;;;;60.17;38.50;;;;;;;8.50;100.00;100714.31;5078594;28;20508;-72
2023/04/23 01:38:52;;;;;;;59.42;37.85;;;;;;;8.56;100.00;100717.16;5077372;28;20152;-72
2023/04/23 01:41:18;;;;;;;59.50;39.03;;;;;;;8.53;100.00;100720.25;5064253;28;20032;-71
2023/04/23 01:43:44;;;;;;;59.28;39.38;;;;;;;8.56;100.00;100719.88;5076849;28;20038;-73
2023/04/23 01:46:11;;;;;;;59.15;36.92;;;;;;;8.59;100.00;100724.13;5078306;28;20538;-72
2023/04/23 01:48:37;;;;;;;59.15;38.17;;;;;;;8.68;100.00;100721.09;5073010;28;20554;-72
2023/04/23 01:51:02;;;;;;;50.95;36.20;;;;;;;8.62;100.00;100718.28;5080058;28;20074;-72
2023/04/23 01:53:28;;;;;;;52.57;36.70;;;;;;;8.65;100.00;100712.44;5078842;28;20036;-72
2023/04/23 01:55:54;;;;;;;53.83;35.72;;;;;;;8.60;100.00;100709.44;5080653;28;20028;-73
2023/04/23 01:58:22;;;;;;;51.80;34.78;;;;;;;8.58;100.00;100714.22;5061827;28;20118;-72
2023/04/23 02:00:47;;;;;;;55.72;34.67;;;;;;;8.59;100.00;100724.13;5061227;28;20111;-73
2023/04/23 02:03:13;;;;;;;51.97;32.67;;;;;;;8.52;100.00;100712.25;5079941;28;20063;-72
2023/04/23 02:05:40;;;;;;;52.30;33.50;;;;;;;8.58;100.00;100708.75;5082065;28;20028;-73
2023/04/23 02:08:06;;;;;;;45.88;31.95;;;;;;;8.55;100.00;100717.34;5062354;28;20035;-72
2023/04/23 02:10:31;;;;;;;46.40;32.53;;;;;;;8.55;100.00;100717.34;5071112;28;20024;-73
2023/04/23 02:12:58;;;;;;;45.55;31.90;;;;;;;8.56;100.00;100708.09;5056712;28;20683;-72
2023/04/23 02:15:24;;;;;;;44.60;31.53;;;;;;;8.63;100.00;100700.84;5064641;28;20040;-73
2023/04/23 02:17:51;;;;;;;50.70;31.73;;;;;;;8.64;100.00;100702.56;5072639;28;20024;-72
2023/04/23 02:20:18;;;;;;;43.08;28.40;;;;;;;8.61;100.00;100701.06;5064085;28;20029;-72
2023/04/23 02:22:45;;;;;;;47.08;30.13;;;;;;;8.62;100.00;100699.16;5062798;28;20016;-73
2023/04/23 02:25:14;;;;;;;43.45;30.05;;;;;;;8.66;100.00;100703.22;5081011;28;20024;-73
2023/04/23 02:27:40;;;;;;;43.85;30.45;;;;;;;8.69;100.00;100702.81;5078385;28;20451;-73
2023/04/23 02:30:07;;;;;;;42.00;30.42;;;;;;;8.76;100.00;100699.16;5079221;28;20100;-73
2023/04/23 02:32:32;;;;;;;41.53;28.90;;;;;;;8.84;100.00;100696.34;5078104;28;20024;-73
2023/04/23 02:34:58;;;;;;;42.47;28.00;;;;;;;8.82;100.00;100692.09;5081452;28;20030;-73
2023/04/23 02:37:23;;;;;;;38.90;29.42;;;;;;;8.72;100.00;100699.72;5058796;28;20067;-72
2023/04/23 02:39:49;;;;;;;38.55;28.05;;;;;;;8.67;100.00;100693.97;5075350;28;20059;-73
2023/04/23 02:42:14;;;;;;;41.85;28.52;;;;;;;8.69;100.00;100691.91;5074604;28;20504;-72
2023/04/23 02:44:40;;;;;;;40.28;28.52;;;;;;;8.72;100.00;100697.00;5074574;28;20086;-72
2023/04/23 02:47:05;;;;;;;41.20;28.13;;;;;;;8.69;100.00;100694.63;5071736;28;20497;-73
2023/04/23 02:49:31;;;;;;;38.80;28.60;;;;;;;8.71;100.00;100698.03;5078683;28;20024;-72
2023/04/23 02:51:56;;;;;;;38.23;27.97;;;;;;;8.69;100.00;100689.16;5079880;28;20070;-72
2023/04/23 02:54:22;;;;;;;37.42;28.05;;;;;;;8.59;100.00;100684.00;5073622;28;20029;-69
2023/04/23 02:56:48;;;;;;;38.63;28.60;;;;;;;8.64;100.00;100687.03;5080007;28;20031;-69
2023/04/23 02:59:13;;;;;;;35.67;27.08;;;;;;;8.53;100.00;100690.22;5063965;28;20025;-69
2023/04/23 03:01:39;;;;;;;39.00;27.42;;;;;;;8.49;100.00;100688.06;5077924;28;20707;-73
2023/04/23 03:04:04;;;;;;;36.47;26.98;;;;;;;8.53;100.00;100692.09;5065226;28;20076;-73
2023/04/23 03:06:30;;;;;;;39.00;26.98;;;;;;;8.50;100.00;100692.47;5080527;28;20028;-73
2023/04/23 03:08:56;;;;;;;40.47;27.80;;;;;;;8.41;100.00;100683.53;5079889;28;20024;-73
2023/04/23 03:11:22;;;;;;;38.53;27.83;;;;;;;8.37;100.00;100687.66;5080569;28;20031;-72
2023/04/23 03:13:47;;;;;;;34.65;26.17;;;;;;;8.39;100.00;100691.06;5062072;28;20021;-72
2023/04/23 03:16:13;;;;;;;38.15;27.88;;;;;;;8.38;100.00;100683.91;5063461;28;20116;-73
2023/04/23 03:18:39;;;;;;;36.00;26.63;;;;;;;8.36;100.00;100682.41;5072214;28;20035;-72
2023/04/23 03:21:04;;;;;;;40.17;27.85;;;;;;;8.35;100.00;100670.66;5079665;28;20053;-72
2023/04/23 03:23:30;;;;;;;43.07;27.70;;;;;;;8.29;100.00;100686.91;5060446;28;20051;-72
2023/04/23 03:25:55;;;;;;;36.92;26.70;;;;;;;8.23;100.00;100674.03;5063788;28;20024;-72
2023/04/23 03:28:21;;;;;;;34.88;25.50;;;;;;;8.15;100.00;100671.31;5076062;28;20024;-72
2023/04/23 03:30:46;;;;;;;38.17;27.20;;;;;;;8.08;100.00;100671.25;5068174;28;20077;-73
2023/04/23 03:33:12;;;;;;;34.67;25.80;;;;;;;8.00;100.00;100674.03;5056048;28;20432;-73
2023/04/23 03:35:37;;;;;;;33.85;24.88;;;;;;;8.01;100.00;100673.00;5059412;28;20107;-74
2023/04/23 03:38:03;;;;;;;39.05;27.73;;;;;;;7.95;100.00;100676.47;5073412;28;20020;-73
2023/04/23 03:40:28;;;;;;;39.25;27.05;;;;;;;7.96;100.00;100671.88;5081756;28;20028;-72
2023/04/23 03:42:53;;;;;;;35.75;26.13;;;;;;;7.89;100.00;100676.34;5074737;28;20032;-72
2023/04/23 03:45:20;;;;;;;33.90;25.47;;;;;;;7.83;100.00;100677.94;5057198;28;20172;-72
2023/04/23 03:47:45;;;;;;;37.22;26.45;;;;;;;7.86;100.00;100684.91;5059709;28;20032;-72
2023/04/23 03:50:14;;;;;;;41.70;27.17;;;;;;;7.96;100.00;100685.50;5069564;28;20056;-74
2023/04/23 03:52:39;;;;;;;36.25;25.75;;;;;;;7.89;100.00;100685.38;5076619;28;20032;-73
2023/04/23 03:55:06;;;;;;;39.10;26.42;;;;;;;7.90;100.00;100678.06;5080226;28;20093;-73
2023/04/23 03:57:32;;;;;;;37.75;26.52;;;;;;;7.82;100.00;100680.84;5058554;28;20135;-72
2023/04/23 03:59:57;;;;;;;38.38;26.10;;;;;;;7.80;100.00;100683.75;5057210;28;20043;-72
2023/04/23 04:02:24;;;;;;;39.53;27.42;;;;;;;7.80;100.00;100680.19;5062334;28;20031;-73
2023/04/23 04:04:50;;;;;;;39.28;27.85;;;;;;;7.86;100.00;100682.19;5058330;28;20035;-73
2023/04/23 04:07:17;;;;;;;37.20;27.33;;;;;;;7.83;100.00;100674.38;5072329;28;20031;-73
2023/04/23 04:09:42;;;;;;;43.20;28.67;;;;;;;7.77;100.00;100686.00;5078693;28;20099;-73
2023/04/23 04:12:09;;;;;;;39.67;27.30;;;;;;;7.73;100.00;100676.50;5076869;28;20028;-73
2023/04/23 04:14:35;;;;;;;34.05;25.88;;;;;;;7.71;100.00;100675.84;5072802;28;20462;-73
2023/04/23 04:17:00;;;;;;;37.20;25.67;;;;;;;7.73;100.00;100676.50;5074481;28;20063;-73
2023/04/23 04:19:26;;;;;;;38.55;26.60;;;;;;;7.74;100.00;100678.22;5064360;28;20068;-73
2023/04/23 04:21:51;;;;;;;39.78;27.35;;;;;;;7.73;100.00;100687.41;5073961;28;20024;-73
2023/04/23 04:24:17;;;;;;;35.17;25.80;;;;;;;7.76;100.00;100681.59;5070624;28;20082;-73
2023/04/23 04:26:44;;;;;;;36.92;26.77;;;;;;;7.73;100.00;100685.53;5076307;28;20024;-73
2023/04/23 04:29:11;;;;;;;42.67;28.05;;;;;;;7.73;100.00;100680.09;5053741;28;20033;-73
2023/04/23 04:31:37;;;;;;;39.05;28.45;;;;;;;7.77;100.00;100681.41;5059326;28;20028;-72
2023/04/23 04:34:03;;;;;;;39.20;27.92;;;;;;;7.75;100.00;100688.91;5073422;28;20112;-72
2023/04/23 04:36:29;;;;;;;40.70;26.90;;;;;;;7.78;100.00;100676.78;5078547;28;20138;-73
2023/04/23 04:38:57;;;;;;;40.03;27.10;;;;;;;7.80;100.00;100682.94;5058507;28;20024;-72
2023/04/23 04:41:24;;;;;;;40.83;27.77;;;;;;;7.89;100.00;100676.34;5074694;28;20024;-71
2023/04/23 04:43:50;;;;;;;38.95;27.13;;;;;;;7.93;100.00;100680.41;5073401;28;20021;-72
2023/04/23 04:46:19;;;;;;;39.92;27.48;;;;;;;7.88;100.00;100677.38;5077803;28;20472;-73
2023/04/23 04:48:45;;;;;;;39.17;28.08;;;;;;;7.85;100.00;100684.06;5075086;28;20020;-72
2023/04/23 04:51:10;;;;;;;33.83;26.17;;;;;;;7.86;100.00;100683.03;5081495;28;20126;-72
2023/04/23 04:53:36;;;;;;;37.05;27.48;;;;;;;7.99;100.00;100687.84;5062825;28;20112;-73
2023/04/23 04:56:01;;;;;;;42.45;27.65;;;;;;;8.13;100.00;100678.88;5067733;28;20039;-72
2023/04/23 04:58:27;;;;;;;43.25;29.40;;;;;;;8.24;100.00;100675.72;5059926;28;20020;-72
2023/04/23 05:00:53;;;;;;;41.60;29.27;;;;;;;8.29;100.00;100673.28;5073914;28;20016;-72
2023/04/23 05:03:19;;;;;;;37.67;28.23;;;;;;;8.41;100.00;100682.69;5058236;28;20024;-72
2023/04/23 05:05:44;;;;;;;36.97;27.17;;;;;;;8.42;100.00;100685.22;5064595;28;20048;-72
2023/04/23 05:08:11;;;;;;;42.08;28.27;;;;;;;8.47;100.00;100690.13;5081878;28;20029;-73
2023/04/23 05:10:36;;;;;;;40.35;26.95;;;;;;;8.53;100.00;100689.34;5078370;28;20047;-73
2023/04/23 05:13:02;;;;;;;42.58;26.42;;;;;;;8.59;100.00;100691.38;5059250;28;20028;-73
2023/04/23 05:15:27;;;;;;;36.35;26.48;;;;;;;8.66;100.00;100684.94;5065053;28;20035;-73
2023/04/23 05:17:53;;;;;;;36.03;25.92;;;;;;;8.68;100.00;100685.63;5075966;28;20521;-73
2023/04/23 05:20:19;;;;;;;36.65;25.48;;;;;;;8.75;100.00;100685.72;5079320;28;20027;-72
2023/04/23 05:22:45;;;;;;;37.30;25.42;;;;;;;8.71;100.00;100682.47;5076329;28;20098;-73
2023/04/23 05:25:12;;;;;;;36.00;25.15;;;;;;;8.63;100.00;100668.94;5078499;28;20028;-72
2023/04/23 05:27:38;;;;;;;35.55;26.77;;;;;;;8.68;100.00;100671.97;5079554;28;20032;-73
2023/04/23 05:30:07;;;;;;;34.60;25.23;;;;;;;8.70;100.00;100672.59;5075848;28;20021;-73
2023/04/23 05:32:32;;;;;;;35.85;25.05;;;;;;;8.75;100.00;100674.78;5081343;28;20645;-72
2023/04/23 05:35:01;;;;;;;34.33;24.00;;;;;;;8.75;100.00;100670.16;5077356;28;20016;-72
2023/04/23 05:37:28;;;;;;;36.85;24.40;;;;;;;8.72;100.00;100670.56;5056932;28;20039;-72
2023/04/23 05:39:54;;;;;;;30.33;23.52;;;;;;;8.74;100.00;100668.47;5079818;28;20048;-75
2023/04/23 05:42:20;;;;;;;36.60;24.30;;;;;;;8.78;100.00;100677.13;5062074;28;20397;-73
2023/04/23 05:44:45;;;;;;;30.07;24.13;;;;;;;8.91;100.00;100671.84;5059329;28;20027;-73
2023/04/23 05:47:12;;;;;;;31.47;24.00;;;;;;;9.03;100.00;100673.03;5075108;28;20352;-74
2023/04/23 05:49:37;;;;;;;;;;;;;;;9.03;100.00;100671.13;5078876;28;20024;-74
2023/04/23 05:52:03;;;;;;;30.17;22.35;;;;;;;9.11;100.00;100672.91;5080838;28;19916;-73
2023/04/23 05:54:28;;;;;;;29.95;22.08;;;;;;;9.25;100.00;100672.91;5059367;28;20028;-73
2023/04/23 05:56:54;;;;;;;30.20;22.88;;;;;;;9.39;100.00;100666.53;5077929;28;20051;-74
2023/04/23 05:59:19;;;;;;;33.88;22.75;;;;;;;9.45;100.00;100667.66;5068557;28;20082;-73
2023/04/23 06:01:46;;;;;;;30.58;21.73;;;;;;;9.47;100.00;100669.16;5077855;28;20028;-73
2023/04/23 06:04:12;;;;;;;33.95;21.50;;;;;;;9.54;100.00;100656.38;5077535;28;20123;-73
2023/04/23 06:06:38;;;;;;;28.83;20.35;;;;;;;9.68;100.00;100662.81;5073769;28;20103;-72
2023/04/23 06:09:03;;;;;;;28.93;21.10;;;;;;;9.73;100.00;100660.34;5076092;28;20450;-73
2023/04/23 06:11:31;;;;;;;27.92;20.30;;;;;;;9.88;100.00;100661.13;5075058;28;20431;-73
2023/04/23 06:13:56;;;;;;;28.13;19.98;;;;;;;9.93;100.00;100662.19;5073889;28;20031;-73
2023/04/23 06:16:22;;;;;;;27.30;19.50;;;;;;;10.01;100.00;100653.00;5060195;28;20082;-73
2023/04/23 06:18:48;;;;;;;26.30;19.47;;;;;;;10.21;100.00;100651.31;5078883;28;20016;-73
2023/04/23 06:21:13;;;;;;;23.95;18.45;;;;;;;10.26;100.00;100644.16;5077904;28;20751;-73
2023/04/23 06:23:39;;;;;;;23.08;18.27;;;;;;;10.35;100.00;100644.88;5076699;28;20086;-73
2023/04/23 06:26:04;;;;;;;23.23;17.10;;;;;;;10.47;100.00;100648.75;5082498;28;20115;-73
2023/04/23 06:28:30;;;;;;;22.03;16.90;;;;;;;10.64;100.00;100644.63;5078346;28;20063;-75
2023/04/23 06:30:55;;;;;;;21.15;16.02;;;;;;;10.69;100.00;100642.97;5075005;28;20100;-75
2023/04/23 06:33:21;;;;;;;22.70;16.70;;;;;;;10.64;100.00;100641.88;5076580;28;20393;-74
2023/04/23 06:35:46;;;;;;;21.10;15.37;;;;;;;10.83;100.00;100652.09;5078562;28;20077;-74
2023/04/23 06:38:12;;;;;;;18.83;14.07;;;;;;;10.95;100.00;100645.00;5073900;28;20024;-75
2023/04/23 06:40:37;;;;;;;23.53;15.00;;;;;;;11.20;100.00;100640.66;5081011;28;20351;-74
2023/04/23 06:43:04;;;;;;;21.60;13.97;;;;;;;11.85;100.00;100632.56;5072334;28;20028;-75
2023/04/23 06:45:30;;;;;;;20.40;12.93;;;;;;;13.04;100.00;100638.47;5072422;28;20032;-74
2023/04/23 06:47:56;;;;;;;19.95;12.30;;;;;;;13.92;96.28;100636.44;5074487;28;20029;-74
2023/04/23 06:50:22;;;;;;;17.37;10.97;;;;;;;14.60;92.83;100631.78;5079278;28;20040;-74
2023/04/23 06:52:48;;;;;;;18.10;10.80;;;;;;;14.83;89.35;100630.03;5062643;28;20083;-75
2023/04/23 06:55:13;;;;;;;17.70;10.47;;;;;;;14.51;89.11;100630.44;5072619;28;20040;-75
2023/04/23 06:57:39;;;;;;;13.20;9.10;;;;;;;14.98;87.86;100629.66;5078734;28;20485;-75
2023/04/23 07:00:07;;;;;;;14.63;9.47;;;;;;;15.35;87.67;100620.28;5066785;28;20089;-75
2023/04/23 07:02:33;;;;;;;15.98;8.93;;;;;;;15.27;84.66;100628.84;5074048;28;20024;-73
2023/04/23 07:05:00;;;;;;;15.93;9.13;;;;;;;15.39;84.94;100618.75;5077997;28;20086;-73
2023/04/23 07:07:25;;;;;;;13.53;9.17;;;;;;;15.84;84.22;100626.31;5070194;28;20040;-73
2023/04/23 07:09:51;;;;;;;14.13;8.37;;;;;;;15.70;83.46;100632.28;5070761;28;20131;-72
2023/04/23 07:12:16;;;;;;;21.53;8.93;;;;;;;15.74;84.32;100619.72;5082504;28;20023;-73
2023/04/23 07:14:42;;;;;;;14.73;8.47;;;;;;;15.50;83.83;100618.78;5081514;28;20089;-72
2023/04/23 07:17:08;;;;;;;12.90;8.30;;;;;;;15.54;84.94;100621.91;5082827;28;20428;-73
2023/04/23 07:19:33;;;;;;;15.13;9.10;;;;;;;15.61;83.41;100619.91;5060855;28;20468;-74
2023/04/23 07:21:59;;;;;;;14.87;7.87;;;;;;;15.64;83.03;100620.25;5079038;28;20027;-73
2023/04/23 07:24:25;;;;;;;23.90;9.00;;;;;;;15.70;83.63;100612.97;5075564;28;20424;-73
2023/04/23 07:26:51;;;;;;;19.02;8.02;;;;;;;16.00;83.26;100608.22;5078733;28;20020;-73
2023/04/23 07:29:16;;;;;;;14.67;7.50;;;;;;;15.78;84.17;100609.84;5079156;28;20032;-73
2023/04/23 07:31:41;;;;;;;23.27;7.70;;;;;;;15.25;84.02;100614.44;5074238;28;20032;-74
2023/04/23 07:34:08;;;;;;;17.47;8.00;;;;;;;14.79;86.52;100611.44;5076011;28;20119;-73
2023/04/23 07:36:34;;;;;;;;;;;;;;;14.76;86.73;100614.66;5059220;28;20036;-72
2023/04/23 07:38:59;;;;;;;15.63;8.18;;;;;;;14.96;85.83;100607.84;5064139;28;19913;-73
2023/04/23 07:41:25;;;;;;;14.87;6.90;;;;;;;15.19;85.65;100602.44;5078563;28;20066;-72
2023/04/23 07:43:51;;;;;;;17.90;7.73;;;;;;;15.23;85.82;100600.91;5056519;28;20028;-72
2023/04/23 07:46:17;;;;;;;18.60;8.53;;;;;;;15.28;85.43;100602.94;5077535;28;20036;-69
2023/04/23 07:48:45;;;;;;;18.43;7.73;;;;;;;15.24;85.54;100608.09;5063021;28;20089;-69
2023/04/23 07:51:11;;;;;;;18.55;8.15;;;;;;;15.21;85.85;100604.97;5059039;28;20102;-69
2023/04/23 07:53:36;;;;;;;15.30;7.40;;;;;;;15.12;86.38;100609.09;5077130;28;20077;-69
2023/04/23 07:56:02;;;;;;;12.30;7.47;;;;;;;14.90;87.23;100607.91;5075867;28;20030;-69
2023/04/23 07:58:27;;;;;;;18.40;8.37;;;;;;;15.12;88.10;100598.06;5076686;28;20028;-69
2023/04/23 08:00:53;;;;;;;20.67;8.27;;;;;;;15.14;86.95;100593.16;5060791;28;20374;-69
2023/04/23 08:03:18;;;;;;;16.23;8.13;;;;;;;15.09;86.50;100590.25;5053706;28;20408;-69
2023/04/23 08:05:44;;;;;;;14.53;7.07;;;;;;;15.08;88.05;100589.41;5072714;28;20028;-69
2023/04/23 08:08:10;;;;;;;18.03;7.33;;;;;;;14.87;86.79;100591.81;5079137;28;20404;-69
2023/04/23 08:10:36;;;;;;;18.23;7.03;;;;;;;15.06;87.74;100596.25;5059288;28;20128;-69
2023/04/23 08:13:01;;;;;;;12.83;6.83;;;;;;;14.93;88.66;100588.13;5066654;28;20036;-69
2023/04/23 08:15:26;;;;;;;16.70;7.40;;;;;;;15.25;87.69;100575.78;5062052;28;20091;-69
2023/04/23 08:17:52;;;;;;;17.53;6.73;;;;;;;15.14;86.35;100585.72;5069462;28;20048;-69
2023/04/23 08:20:18;;;;;;;17.77;7.33;;;;;;;14.88;86.58;100582.50;5074830;28;20436;-69
2023/04/23 08:22:43;;;;;;;20.07;8.73;;;;;;;14.81;86.33;100589.97;5062540;28;20036;-69
2023/04/23 08:25:09;;;;;;;16.97;6.73;;;;;;;14.84;88.07;100592.28;5080061;28;20489;-69
2023/04/23 08:27:34;;;;;;;14.27;6.60;;;;;;;15.09;88.23;100593.84;5075187;28;20079;-69
2023/04/23 08:29:59;;;;;;;18.13;6.97;;;;;;;15.40;86.90;100596.44;5084742;28;20024;-68
2023/04/23 08:32:25;;;;;;;20.60;6.40;;;;;;;15.37;84.42;100590.53;5075190;28;20029;-69
2023/04/23 08:34:50;;;;;;;15.77;5.70;;;;;;;15.54;84.30;100592.38;5073803;28;20485;-69
2023/04/23 08:37:16;;;;;;;16.90;6.47;;;;;;;15.31;83.71;100588.69;5071489;28;20545;-70
2023/04/23 08:39:41;;;;;;;15.43;5.83;;;;;;;15.50;85.65;100587.56;5075386;28;20573;-69
2023/04/23 08:42:14;;;;;;;13.03;6.47;;;;;;;15.65;84.28;100585.22;5075293;28;20104;-69
2023/04/23 08:44:41;;;;;;;12.60;5.80;;;;;;;15.86;84.57;100590.19;5076917;28;20036;-69
2023/04/23 08:47:11;;;;;;;35.08;7.03;;;;;;;15.57;84.20;100596.59;5074668;28;20028;-69
2023/04/23 08:49:41;;;;;;;17.02;6.82;;;;;;;15.59;83.69;100588.94;5078172;28;20020;-69
2023/04/23 08:52:16;;;;;;;19.88;5.90;;;;;;;15.81;84.65;100598.34;5077550;28;20044;-69
2023/04/23 08:54:46;;;;;;;14.57;5.68;;;;;;;15.80;83.79;100585.63;5081132;28;20118;-69
2023/04/23 08:57:14;;;;;;;14.50;5.65;;;;;;;15.49;82.56;100595.03;5074833;28;20035;-69
2023/04/23 08:59:40;;;;;;;18.77;6.32;;;;;;;15.68;83.72;100595.81;5079116;28;20028;-68
2023/04/23 09:02:06;;;;;;;19.83;6.53;;;;;;;15.56;81.59;100603.19;5067965;28;20067;-69
2023/04/23 09:04:33;;;;;;;10.98;4.13;;;;;;;15.51;81.51;100590.09;5084986;28;20523;-74
2023/04/23 09:06:59;;;;;;;15.63;4.75;;;;;;;15.59;82.18;100584.22;5081715;28;20426;-74
2023/04/23 09:09:28;;;;;;;20.83;4.77;;;;;;;15.57;82.28;100588.28;5084522;28;20101;-74
2023/04/23 09:11:54;;;;;;;22.80;5.18;;;;;;;15.76;83.01;100589.91;5071737;28;20883;-76
2023/04/23 09:14:24;;;;;;;14.88;4.97;;;;;;;16.00;81.75;100575.91;5083259;28;20078;-74
2023/04/23 09:16:51;;;;;;;18.90;5.47;;;;;;;15.99;81.87;100579.75;5074343;28;20052;-74
2023/04/23 09:19:17;;;;;;;16.50;5.13;;;;;;;16.04;81.05;100573.50;5075670;28;20040;-76
2023/04/23 09:21:45;;;;;;;15.82;3.83;;;;;;;16.14;80.59;100579.28;5075336;28;20037;-74
2023/04/23 09:24:11;;;;;;;11.00;4.97;;;;;;;16.26;80.02;100569.91;5082728;28;20473;-74
2023/04/23 09:26:47;;;;;;;10.00;4.68;;;;;;;16.52;79.17;100577.72;5072646;28;20028;-74
2023/04/23 09:29:23;;;;;;;12.88;4.32;;;;;;;16.63;78.35;100587.09;5078045;28;20082;-75
2023/04/23 09:31:50;;;;;;;10.88;4.20;;;;;;;16.97;77.11;100570.41;5074665;28;20441;-75
2023/04/23 09:34:20;;;;;;;15.60;3.40;;;;;;;17.18;76.09;100568.91;5072605;28;20090;-75
2023/04/23 09:36:50;;;;;;;15.13;4.00;;;;;;;17.12;76.59;100570.72;5074464;28;20149;-74
2023/04/23 09:39:17;;;;;;;13.43;3.63;;;;;;;17.08;74.89;100566.75;5080843;28;20020;-74
2023/04/23 09:41:45;;;;;;;15.02;3.38;;;;;;;17.15;74.44;100563.84;5073699;28;20478;-74
2023/04/23 09:44:13;;;;;;;18.77;4.32;;;;;;;17.30;74.29;100562.19;5077632;28;20048;-74
2023/04/23 09:46:43;;;;;;;10.02;3.65;;;;;;;17.27;72.87;100556.31;5071354;28;20123;-74
2023/04/23 09:49:11;;;;;;;13.27;3.03;;;;;;;16.94;72.39;100557.06;5075663;28;20472;-74
2023/04/23 09:51:41;;;;;;;11.38;2.60;;;;;;;16.88;74.78;100560.84;5070027;28;20051;-75
2023/04/23 09:54:20;;;;;;;9.65;3.80;;;;;;;16.83;73.76;100543.25;5083366;28;20477;-74
2023/04/23 09:56:58;;;;;;;17.65;4.18;;;;;;;16.81;74.60;100550.97;5065299;28;20020;-74
2023/04/23 09:59:26;;;;;;;17.92;3.60;;;;;;;16.86;73.74;100548.31;5080346;28;20031;-74
2023/04/23 10:01:52;;;;;;;11.25;3.60;;;;;;;16.97;74.14;100544.69;5075589;28;20373;-74
2023/04/23 10:04:22;;;;;;;7.90;3.08;;;;;;;17.08;73.42;100546.56;5074579;28;20493;-74
2023/04/23 10:06:59;;;;;;;12.30;3.17;;;;;;;17.18;73.15;100541.22;5076052;28;20050;-74
2023/04/23 10:09:27;;;;;;;12.60;2.88;;;;;;;17.38;72.68;100542.47;5061161;28;20051;-74
2023/04/23 10:11:57;;;;;;;12.73;3.20;;;;;;;17.69;72.55;100541.06;5072374;28;20025;-74
2023/04/23 10:14:25;;;;;;;15.45;2.78;;;;;;;17.94;71.17;100542.34;5081476;28;20030;-74
2023/04/23 10:16:56;;;;;;;13.18;3.33;;;;;;;18.01;70.82;100534.69;5074158;28;20028;-74
2023/04/23 10:19:23;;;;;;;14.45;3.42;;;;;;;17.76;68.11;100531.50;5079856;28;20019;-74
2023/04/23 10:22:04;;;;;;;12.13;2.80;;;;;;;17.27;68.64;100537.81;5075301;28;20488;-74
2023/04/23 10:24:33;;;;;;;12.95;2.55;;;;;;;17.24;69.21;100529.16;5077788;28;20039;-74
2023/04/23 10:27:01;;;;;;;9.02;2.83;;;;;;;17.17;70.27;100522.91;5072961;28;20039;-75
2023/04/23 10:29:32;;;;;;;11.93;2.60;;;;;;;17.47;69.91;100517.97;5080686;28;20025;-74
2023/04/23 10:32:08;;;;;;;7.20;3.22;;;;;;;17.56;68.64;100520.06;5075586;28;20031;-74
2023/04/23 10:34:34;;;;;;;8.10;2.35;;;;;;;17.37;68.22;100520.53;5060398;28;20039;-74
2023/04/23 10:37:00;;;;;;;14.87;3.00;;;;;;;17.43;68.17;100516.78;5074349;28;20359;-74
2023/04/23 10:39:27;;;;;;;;;;;;;;;17.24;68.66;100518.91;5078554;28;20058;-72
2023/04/23 10:41:54;;;;;;;9.90;2.65;;;;;;;17.53;68.68;100516.97;5070653;28;19924;-73
2023/04/23 10:44:23;;;;;;;8.27;2.60;;;;;;;17.46;67.80;100510.75;5081312;28;20536;-73
2023/04/23 10:46:56;;;;;;;9.23;3.15;;;;;;;17.61;68.66;100497.19;5075108;28;20077;-73
2023/04/23 10:49:24;;;;;;;11.82;3.33;;;;;;;17.63;67.26;100497.75;5076965;28;20028;-73
2023/04/23 10:51:59;;;;;;;10.45;2.53;;;;;;;17.35;68.28;100484.78;5065937;28;20083;-72
2023/04/23 10:54:31;;;;;;;15.00;2.83;;;;;;;17.25;69.70;100486.53;5079456;28;20028;-72
2023/04/23 10:57:04;;;;;;;9.23;2.72;;;;;;;16.86;70.24;100481.91;5074726;28;20040;-72
2023/04/23 10:59:31;;;;;;;12.02;2.30;;;;;;;16.85;69.75;100485.75;5079224;28;20473;-73
2023/04/23 11:01:58;;;;;;;11.43;2.20;;;;;;;16.85;70.00;100491.28;5069780;28;20032;-73
2023/04/23 11:04:34;;;;;;;7.93;2.20;;;;;;;17.16;69.57;100479.72;5076015;28;20150;-74
2023/04/23 11:07:10;;;;;;;13.77;2.55;;;;;;;17.57;68.05;100483.00;5071678;28;20032;-74
2023/04/23 11:09:39;;;;;;;7.20;1.98;;;;;;;17.89;66.72;100486.00;5079213;28;20453;-74